sensor_id;sensor_type;location;lat;lon;timestamp;pressure;altitude;pressure_sealevel;temperature;humidity
39405;BME280;25121;51.090;17.038;2023-05-25T00:00:50;100723.06;;;12.83;53.07
39405;BME280;25121;51.090;17.038;2023-05-25T00:02:21;100715.16;;;12.82;53.02
39405;BME280;25121;51.090;17.038;2023-05-25T00:03:44;100719.72;;;12.81;53.14
39405;BME280;25121;51.090;17.038;2023-05-25T00:05:07;100724.25;;;12.81;53.30
39405;BME280;25121;51.090;17.038;2023-05-25T00:06:28;100721.72;;;12.79;53.05
39405;BME280;25121;51.090;17.038;2023-05-25T00:07:50;100720.06;;;12.78;53.29
39405;BME280;25121;51.090;17.038;2023-05-25T00:09:11;100719.38;;;12.76;53.10
39405;BME280;25121;51.090;17.038;2023-05-25T00:10:34;100715.03;;;12.75;53.11
39405;BME280;25121;51.090;17.038;2023-05-25T00:11:59;100714.84;;;12.77;53.14
39405;BME280;25121;51.090;17.038;2023-05-25T00:13:23;100715.03;;;12.75;53.18
39405;BME280;25121;51.090;17.038;2023-05-25T00:14:45;100708.97;;;12.73;53.13
39405;BME280;25121;51.090;17.038;2023-05-25T00:16:07;100710.81;;;12.73;53.37
39405;BME280;25121;51.090;17.038;2023-05-25T00:17:39;100714.50;;;12.71;53.17
39405;BME280;25121;51.090;17.038;2023-05-25T00:19:22;100719.06;;;12.71;53.37
39405;BME280;25121;51.090;17.038;2023-05-25T00:24:19;100717.72;;;12.67;53.30
39405;BME280;25121;51.090;17.038;2023-05-25T00:26:05;100723.13;;;12.67;53.21
39405;BME280;25121;51.090;17.038;2023-05-25T00:28:09;100715.59;;;12.62;53.22
39405;BME280;25121;51.090;17.038;2023-05-25T00:29:49;100717.41;;;12.62;53.42
39405;BME280;25121;51.090;17.038;2023-05-25T00:31:28;100715.75;;;12.61;53.23
39405;BME280;25121;51.090;17.038;2023-05-25T00:33:20;100714.06;;;12.60;53.30
39405;BME280;25121;51.090;17.038;2023-05-25T00:34:42;100708.00;;;12.58;53.27
39405;BME280;25121;51.090;17.038;2023-05-25T00:36:03;100714.41;;;12.57;53.20
39405;BME280;25121;51.090;17.038;2023-05-25T00:37:25;100710.03;;;12.56;53.19
39405;BME280;25121;51.090;17.038;2023-05-25T00:38:46;100717.28;;;12.55;53.45
39405;BME280;25121;51.090;17.038;2023-05-25T00:40:11;100715.78;;;12.53;53.26
39405;BME280;25121;51.090;17.038;2023-05-25T00:41:36;100715.78;;;12.53;53.48
39405;BME280;25121;51.090;17.038;2023-05-25T00:43:01;100717.78;;;12.50;53.36
39405;BME280;25121;51.090;17.038;2023-05-25T00:44:23;100720.66;;;12.49;53.38
39405;BME280;25121;51.090;17.038;2023-05-25T00:45:46;100728.06;;;12.47;53.32
39405;BME280;25121;51.090;17.038;2023-05-25T00:47:09;100719.34;;;12.45;53.34
39405;BME280;25121;51.090;17.038;2023-05-25T00:48:31;100727.59;;;12.43;53.30
39405;BME280;25121;51.090;17.038;2023-05-25T00:50:03;100723.22;;;12.42;53.64
39405;BME280;25121;51.090;17.038;2023-05-25T00:52:02;100724.22;;;12.41;53.41
39405;BME280;25121;51.090;17.038;2023-05-25T00:54:44;100736.19;;;12.39;53.69
39405;BME280;25121;51.090;17.038;2023-05-25T00:56:29;100726.59;;;12.36;53.52
39405;BME280;25121;51.090;17.038;2023-05-25T00:57:53;100734.00;;;12.34;53.39
39405;BME280;25121;51.090;17.038;2023-05-25T00:59:25;100741.25;;;12.34;53.50
39405;BME280;25121;51.090;17.038;2023-05-25T01:00:49;100736.00;;;12.32;53.57
39405;BME280;25121;51.090;17.038;2023-05-25T01:02:12;100740.56;;;12.32;53.61
39405;BME280;25121;51.090;17.038;2023-05-25T01:03:38;100736.19;;;12.31;53.47
39405;BME280;25121;51.090;17.038;2023-05-25T01:04:59;100730.97;;;12.29;53.56
39405;BME280;25121;51.090;17.038;2023-05-25T01:06:23;100734.69;;;12.28;53.63
39405;BME280;25121;51.090;17.038;2023-05-25T01:07:46;100727.59;;;12.27;53.72
39405;BME280;25121;51.090;17.038;2023-05-25T01:09:12;100732.34;;;12.25;53.55
39405;BME280;25121;51.090;17.038;2023-05-25T01:10:36;100729.66;;;12.25;53.57
39405;BME280;25121;51.090;17.038;2023-05-25T01:12:05;100727.94;;;12.24;53.59
39405;BME280;25121;51.090;17.038;2023-05-25T01:13:28;100729.97;;;12.22;53.78
39405;BME280;25121;51.090;17.038;2023-05-25T01:14:50;100729.13;;;12.21;53.64
39405;BME280;25121;51.090;17.038;2023-05-25T01:16:14;100728.28;;;12.21;53.73
39405;BME280;25121;51.090;17.038;2023-05-25T01:17:35;100733.84;;;12.19;53.83
39405;BME280;25121;51.090;17.038;2023-05-25T01:19:01;100727.63;;;12.19;53.73
39405;BME280;25121;51.090;17.038;2023-05-25T01:20:22;100734.03;;;12.18;53.90
39405;BME280;25121;51.090;17.038;2023-05-25T01:21:46;100731.50;;;12.16;53.73
39405;BME280;25121;51.090;17.038;2023-05-25T01:23:13;100734.19;;;12.16;53.91
39405;BME280;25121;51.090;17.038;2023-05-25T01:24:37;100733.50;;;12.14;53.88
39405;BME280;25121;51.090;17.038;2023-05-25T01:26:03;100739.09;;;12.13;53.90
39405;BME280;25121;51.090;17.038;2023-05-25T01:27:27;100734.53;;;12.13;53.93
39405;BME280;25121;51.090;17.038;2023-05-25T01:28:52;100733.84;;;12.11;53.91
39405;BME280;25121;51.090;17.038;2023-05-25T01:30:15;100734.88;;;12.10;54.01
39405;BME280;25121;51.090;17.038;2023-05-25T01:31:38;100733.19;;;12.09;53.81
39405;BME280;25121;51.090;17.038;2023-05-25T01:33:03;100744.97;;;12.08;53.78
39405;BME280;25121;51.090;17.038;2023-05-25T01:34:40;100741.47;;;12.07;54.14
39405;BME280;25121;51.090;17.038;2023-05-25T01:36:11;100750.53;;;12.06;53.82
39405;BME280;25121;51.090;17.038;2023-05-25T01:40:57;100755.44;;;12.03;54.10
39405;BME280;25121;51.090;17.038;2023-05-25T01:43:25;100747.84;;;11.98;53.99
39405;BME280;25121;51.090;17.038;2023-05-25T01:45:46;100756.91;;;11.97;53.91
39405;BME280;25121;51.090;17.038;2023-05-25T01:47:26;100758.09;;;11.95;54.08
39405;BME280;25121;51.090;17.038;2023-05-25T01:49:00;100751.03;;;11.94;54.17
39405;BME280;25121;51.090;17.038;2023-05-25T01:50:29;100756.59;;;11.92;54.05
39405;BME280;25121;51.090;17.038;2023-05-25T01:52:10;100751.38;;;11.91;54.08
39405;BME280;25121;51.090;17.038;2023-05-25T01:53:35;100754.06;;;11.91;53.94
39405;BME280;25121;51.090;17.038;2023-05-25T01:55:45;100752.56;;;11.88;54.26
39405;BME280;25121;51.090;17.038;2023-05-25T01:57:11;100756.25;;;11.87;54.25
39405;BME280;25121;51.090;17.038;2023-05-25T01:58:38;100755.41;;;11.87;54.00
39405;BME280;25121;51.090;17.038;2023-05-25T02:00:01;100756.41;;;11.85;54.22
39405;BME280;25121;51.090;17.038;2023-05-25T02:01:32;100756.56;;;11.84;54.39
39405;BME280;25121;51.090;17.038;2023-05-25T02:02:56;100763.81;;;11.83;54.28
39405;BME280;25121;51.090;17.038;2023-05-25T02:04:18;100758.56;;;11.82;54.37
39405;BME280;25121;51.090;17.038;2023-05-25T02:05:41;100767.47;;;11.82;54.33
39405;BME280;25121;51.090;17.038;2023-05-25T02:07:05;100766.84;;;11.80;54.34
39405;BME280;25121;51.090;17.038;2023-05-25T02:08:27;100763.28;;;11.80;54.39
39405;BME280;25121;51.090;17.038;2023-05-25T02:09:52;100767.00;;;11.79;54.42
39405;BME280;25121;51.090;17.038;2023-05-25T02:11:13;100765.47;;;11.76;54.53
39405;BME280;25121;51.090;17.038;2023-05-25T02:12:35;100769.00;;;11.77;54.44
39405;BME280;25121;51.090;17.038;2023-05-25T02:13:58;100766.50;;;11.75;54.50
39405;BME280;25121;51.090;17.038;2023-05-25T02:15:20;100768.31;;;11.75;54.28
39405;BME280;25121;51.090;17.038;2023-05-25T02:16:47;100760.44;;;11.73;54.64
39405;BME280;25121;51.090;17.038;2023-05-25T02:18:09;100763.13;;;11.73;54.56
39405;BME280;25121;51.090;17.038;2023-05-25T02:19:33;100764.09;;;11.72;54.65
39405;BME280;25121;51.090;17.038;2023-05-25T02:20:56;100767.97;;;11.70;54.50
39405;BME280;25121;51.090;17.038;2023-05-25T02:22:21;100762.59;;;11.70;54.58
39405;BME280;25121;51.090;17.038;2023-05-25T02:23:42;100758.22;;;11.69;54.53
39405;BME280;25121;51.090;17.038;2023-05-25T02:25:04;100760.09;;;11.68;54.66
39405;BME280;25121;51.090;17.038;2023-05-25T02:26:26;100770.03;;;11.68;54.54
39405;BME280;25121;51.090;17.038;2023-05-25T02:27:53;100758.56;;;11.66;54.52
39405;BME280;25121;51.090;17.038;2023-05-25T02:29:14;100761.25;;;11.66;54.75
39405;BME280;25121;51.090;17.038;2023-05-25T02:30:36;100756.88;;;11.64;54.58
39405;BME280;25121;51.090;17.038;2023-05-25T02:31:57;100756.19;;;11.62;54.68
39405;BME280;25121;51.090;17.038;2023-05-25T02:33:28;100763.44;;;11.62;54.84
39405;BME280;25121;51.090;17.038;2023-05-25T02:34:50;100759.91;;;11.61;54.72
39405;BME280;25121;51.090;17.038;2023-05-25T02:36:15;100765.44;;;11.60;54.65
39405;BME280;25121;51.090;17.038;2023-05-25T02:37:36;100763.59;;;11.60;54.78
39405;BME280;25121;51.090;17.038;2023-05-25T02:38:59;100761.91;;;11.59;54.83
39405;BME280;25121;51.090;17.038;2023-05-25T02:40:21;100761.06;;;11.59;54.83
39405;BME280;25121;51.090;17.038;2023-05-25T02:41:43;100751.31;;;11.58;54.69
39405;BME280;25121;51.090;17.038;2023-05-25T02:43:05;100755.84;;;11.57;54.83
39405;BME280;25121;51.090;17.038;2023-05-25T02:44:27;100755.84;;;11.57;54.78
39405;BME280;25121;51.090;17.038;2023-05-25T02:45:49;100752.31;;;11.57;54.77
39405;BME280;25121;51.090;17.038;2023-05-25T02:47:17;100755.19;;;11.55;54.75
39405;BME280;25121;51.090;17.038;2023-05-25T02:49:11;100759.72;;;11.55;54.87
39405;BME280;25121;51.090;17.038;2023-05-25T02:50:35;100758.03;;;11.54;54.87
39405;BME280;25121;51.090;17.038;2023-05-25T02:52:00;100752.66;;;11.54;54.84
39405;BME280;25121;51.090;17.038;2023-05-25T02:53:22;100754.50;;;11.53;55.00
39405;BME280;25121;51.090;17.038;2023-05-25T02:54:45;100759.88;;;11.53;54.89
39405;BME280;25121;51.090;17.038;2023-05-25T02:56:13;100762.59;;;11.53;54.84
39405;BME280;25121;51.090;17.038;2023-05-25T02:57:35;100754.50;;;11.53;55.01
39405;BME280;25121;51.090;17.038;2023-05-25T02:59:02;100760.72;;;11.54;54.95
39405;BME280;25121;51.090;17.038;2023-05-25T03:00:25;100767.78;;;11.55;54.89
39405;BME280;25121;51.090;17.038;2023-05-25T03:01:46;100764.09;;;11.56;55.02
39405;BME280;25121;51.090;17.038;2023-05-25T03:03:08;100758.72;;;11.56;55.02
39405;BME280;25121;51.090;17.038;2023-05-25T03:04:30;100755.84;;;11.57;55.12
39405;BME280;25121;51.090;17.038;2023-05-25T03:05:54;100760.22;;;11.58;54.82
39405;BME280;25121;51.090;17.038;2023-05-25T03:07:17;100761.91;;;11.59;54.97
39405;BME280;25121;51.090;17.038;2023-05-25T03:08:41;100760.91;;;11.60;54.83
39405;BME280;25121;51.090;17.038;2023-05-25T03:10:02;100757.88;;;11.63;55.05
39405;BME280;25121;51.090;17.038;2023-05-25T03:11:24;100761.94;;;11.68;55.08
39405;BME280;25121;51.090;17.038;2023-05-25T03:12:49;100758.91;;;11.71;55.14
39405;BME280;25121;51.090;17.038;2023-05-25T03:14:11;100756.72;;;11.74;54.98
39405;BME280;25121;51.090;17.038;2023-05-25T03:17:32;100765.66;;;11.83;54.94
39405;BME280;25121;51.090;17.038;2023-05-25T03:18:54;100762.63;;;11.86;54.74
39405;BME280;25121;51.090;17.038;2023-05-25T03:20:16;100776.47;;;11.91;54.89
39405;BME280;25121;51.090;17.038;2023-05-25T03:21:40;100774.94;;;11.97;54.83
39405;BME280;25121;51.090;17.038;2023-05-25T03:23:02;100775.47;;;12.00;54.99
39405;BME280;25121;51.090;17.038;2023-05-25T03:24:23;100785.56;;;12.06;54.67
39405;BME280;25121;51.090;17.038;2023-05-25T03:25:49;100789.41;;;12.12;54.93
39405;BME280;25121;51.090;17.038;2023-05-25T03:27:11;100794.16;;;12.18;54.79
39405;BME280;25121;51.090;17.038;2023-05-25T03:28:35;100781.84;;;12.24;54.73
39405;BME280;25121;51.090;17.038;2023-05-25T03:29:59;100785.69;;;12.29;54.64
39405;BME280;25121;51.090;17.038;2023-05-25T03:31:21;100783.38;;;12.35;54.55
39405;BME280;25121;51.090;17.038;2023-05-25T03:32:44;100782.84;;;12.39;54.35
39405;BME280;25121;51.090;17.038;2023-05-25T03:34:05;100794.97;;;12.43;54.38
39405;BME280;25121;51.090;17.038;2023-05-25T03:35:30;100795.28;;;12.48;54.26
39405;BME280;25121;51.090;17.038;2023-05-25T03:36:51;100793.94;;;12.53;54.12
39405;BME280;25121;51.090;17.038;2023-05-25T03:38:14;100793.44;;;12.57;54.24
39405;BME280;25121;51.090;17.038;2023-05-25T03:39:35;100796.78;;;12.59;54.01
39405;BME280;25121;51.090;17.038;2023-05-25T03:40:57;100793.56;;;12.64;54.01
39405;BME280;25121;51.090;17.038;2023-05-25T03:42:22;100793.22;;;12.67;53.96
39405;BME280;25121;51.090;17.038;2023-05-25T03:43:43;100793.75;;;12.70;53.88
39405;BME280;25121;51.090;17.038;2023-05-25T03:45:07;100795.25;;;12.73;53.61
39405;BME280;25121;51.090;17.038;2023-05-25T03:46:31;100798.63;;;12.75;53.65
39405;BME280;25121;51.090;17.038;2023-05-25T03:47:52;100801.81;;;12.79;53.56
39405;BME280;25121;51.090;17.038;2023-05-25T03:49:14;100805.00;;;12.82;53.56
39405;BME280;25121;51.090;17.038;2023-05-25T03:50:35;100793.88;;;12.85;53.52
39405;BME280;25121;51.090;17.038;2023-05-25T03:51:59;100795.22;;;12.89;53.47
39405;BME280;25121;51.090;17.038;2023-05-25T03:53:20;100804.63;;;12.93;53.46
39405;BME280;25121;51.090;17.038;2023-05-25T03:54:42;100791.66;;;12.97;53.54
39405;BME280;25121;51.090;17.038;2023-05-25T03:56:04;100800.06;;;13.02;53.61
39405;BME280;25121;51.090;17.038;2023-05-25T03:57:29;100798.69;;;13.06;53.30
39405;BME280;25121;51.090;17.038;2023-05-25T03:58:51;100795.31;;;13.12;53.35
39405;BME280;25121;51.090;17.038;2023-05-25T04:00:17;100802.88;;;13.17;53.21
39405;BME280;25121;51.090;17.038;2023-05-25T04:01:42;100794.44;;;13.20;53.26
39405;BME280;25121;51.090;17.038;2023-05-25T04:03:04;100793.91;;;13.25;53.24
39405;BME280;25121;51.090;17.038;2023-05-25T04:04:27;100805.88;;;13.30;52.96
39405;BME280;25121;51.090;17.038;2023-05-25T04:05:50;100796.22;;;13.36;52.88
39405;BME280;25121;51.090;17.038;2023-05-25T04:07:13;100802.81;;;13.42;53.00
39405;BME280;25121;51.090;17.038;2023-05-25T04:08:36;100803.94;;;13.47;52.73
39405;BME280;25121;51.090;17.038;2023-05-25T04:10:01;100803.41;;;13.52;52.71
39405;BME280;25121;51.090;17.038;2023-05-25T04:11:22;100807.44;;;13.56;52.67
39405;BME280;25121;51.090;17.038;2023-05-25T04:12:46;100812.50;;;13.59;52.61
39405;BME280;25121;51.090;17.038;2023-05-25T04:14:08;100815.84;;;13.61;52.60
39405;BME280;25121;51.090;17.038;2023-05-25T04:15:34;100811.47;;;13.60;52.79
39405;BME280;25121;51.090;17.038;2023-05-25T04:17:04;100814.00;;;13.62;52.81
39405;BME280;25121;51.090;17.038;2023-05-25T04:18:27;100819.41;;;13.62;52.73
39405;BME280;25121;51.090;17.038;2023-05-25T04:19:48;100813.13;;;13.61;52.67
39405;BME280;25121;51.090;17.038;2023-05-25T04:21:17;100812.97;;;13.63;52.76
39405;BME280;25121;51.090;17.038;2023-05-25T04:22:39;100816.50;;;13.63;52.58
39405;BME280;25121;51.090;17.038;2023-05-25T04:24:06;100807.22;;;13.66;52.88
39405;BME280;25121;51.090;17.038;2023-05-25T04:25:38;100810.41;;;13.69;52.67
39405;BME280;25121;51.090;17.038;2023-05-25T04:27:02;100807.50;;;13.71;52.43
39405;BME280;25121;51.090;17.038;2023-05-25T04:28:24;100812.59;;;13.74;52.53
39405;BME280;25121;51.090;17.038;2023-05-25T04:30:01;100811.53;;;13.75;52.34
39405;BME280;25121;51.090;17.038;2023-05-25T04:31:40;100816.59;;;13.78;52.33
39405;BME280;25121;51.090;17.038;2023-05-25T04:33:29;100819.94;;;13.80;52.28
39405;BME280;25121;51.090;17.038;2023-05-25T04:34:54;100818.09;;;13.81;52.37
39405;BME280;25121;51.090;17.038;2023-05-25T04:38:47;100819.78;;;13.82;52.27
39405;BME280;25121;51.090;17.038;2023-05-25T04:40:21;100824.16;;;13.83;52.34
39405;BME280;25121;51.090;17.038;2023-05-25T04:41:50;100826.84;;;13.83;52.34
39405;BME280;25121;51.090;17.038;2023-05-25T04:43:15;100823.13;;;13.84;52.22
39405;BME280;25121;51.090;17.038;2023-05-25T04:44:41;100824.81;;;13.85;52.23
39405;BME280;25121;51.090;17.038;2023-05-25T04:46:03;100832.56;;;13.88;52.29
39405;BME280;25121;51.090;17.038;2023-05-25T04:47:33;100827.16;;;13.88;52.39
39405;BME280;25121;51.090;17.038;2023-05-25T04:49:04;100829.50;;;13.91;52.31
39405;BME280;25121;51.090;17.038;2023-05-25T04:50:28;100834.72;;;13.92;52.30
39405;BME280;25121;51.090;17.038;2023-05-25T04:51:54;100834.56;;;13.94;52.40
39405;BME280;25121;51.090;17.038;2023-05-25T04:53:17;100828.97;;;13.95;52.13
39405;BME280;25121;51.090;17.038;2023-05-25T04:54:43;100831.66;;;13.95;52.34
39405;BME280;25121;51.090;17.038;2023-05-25T04:56:27;100835.88;;;13.98;52.23
39405;BME280;25121;51.090;17.038;2023-05-25T04:57:49;100833.84;;;14.00;52.26
39405;BME280;25121;51.090;17.038;2023-05-25T04:59:12;100834.50;;;14.02;52.26
39405;BME280;25121;51.090;17.038;2023-05-25T05:00:36;100829.75;;;14.04;52.14
39405;BME280;25121;51.090;17.038;2023-05-25T05:01:59;100842.75;;;14.09;52.01
39405;BME280;25121;51.090;17.038;2023-05-25T05:03:24;100834.44;;;14.10;52.08
39405;BME280;25121;51.090;17.038;2023-05-25T05:04:46;100830.34;;;14.14;52.10
39405;BME280;25121;51.090;17.038;2023-05-25T05:06:12;100833.34;;;14.19;51.81
39405;BME280;25121;51.090;17.038;2023-05-25T05:07:40;100829.44;;;14.22;51.93
39405;BME280;25121;51.090;17.038;2023-05-25T05:09:05;100840.72;;;14.26;51.87
39405;BME280;25121;51.090;17.038;2023-05-25T05:12:01;100834.78;;;14.30;51.74
39405;BME280;25121;51.090;17.038;2023-05-25T05:14:02;100832.56;;;14.34;51.57
39405;BME280;25121;51.090;17.038;2023-05-25T05:15:53;100834.53;;;14.40;51.63
39405;BME280;25121;51.090;17.038;2023-05-25T05:17:46;100840.25;;;14.45;51.55
39405;BME280;25121;51.090;17.038;2023-05-25T05:19:10;100840.06;;;14.47;51.53
39405;BME280;25121;51.090;17.038;2023-05-25T05:20:33;100840.53;;;14.50;51.51
39405;BME280;25121;51.090;17.038;2023-05-25T05:22:05;100842.72;;;14.55;51.47
39405;BME280;25121;51.090;17.038;2023-05-25T05:23:43;100834.22;;;14.58;51.26
39405;BME280;25121;51.090;17.038;2023-05-25T05:26:13;100837.72;;;14.67;51.12
39405;BME280;25121;51.090;17.038;2023-05-25T05:27:35;100840.88;;;14.70;51.10
39405;BME280;25121;51.090;17.038;2023-05-25T05:29:04;100839.88;;;14.71;51.06
39405;BME280;25121;51.090;17.038;2023-05-25T05:30:29;100848.66;;;14.73;51.08
39405;BME280;25121;51.090;17.038;2023-05-25T05:31:50;100851.16;;;14.75;50.89
39405;BME280;25121;51.090;17.038;2023-05-25T05:33:15;100849.09;;;14.77;50.87
39405;BME280;25121;51.090;17.038;2023-05-25T05:34:41;100852.47;;;14.79;50.93
39405;BME280;25121;51.090;17.038;2023-05-25T05:36:20;100846.53;;;14.83;50.89
39405;BME280;25121;51.090;17.038;2023-05-25T05:37:42;100841.38;;;14.89;50.74
39405;BME280;25121;51.090;17.038;2023-05-25T05:39:06;100843.53;;;14.93;50.67
39405;BME280;25121;51.090;17.038;2023-05-25T05:40:28;100849.25;;;14.98;50.59
39405;BME280;25121;51.090;17.038;2023-05-25T05:41:50;100849.50;;;15.03;50.59
39405;BME280;25121;51.090;17.038;2023-05-25T05:43:12;100842.06;;;15.05;50.65
39405;BME280;25121;51.090;17.038;2023-05-25T05:44:35;100846.53;;;15.13;50.32
39405;BME280;25121;51.090;17.038;2023-05-25T05:45:56;100841.41;;;15.18;50.31
39405;BME280;25121;51.090;17.038;2023-05-25T05:47:19;100843.16;;;15.26;50.27
39405;BME280;25121;51.090;17.038;2023-05-25T05:48:46;100846.97;;;15.32;50.19
39405;BME280;25121;51.090;17.038;2023-05-25T05:50:10;100855.75;;;15.34;50.16
39405;BME280;25121;51.090;17.038;2023-05-25T05:51:33;100841.84;;;15.37;50.23
39405;BME280;25121;51.090;17.038;2023-05-25T05:52:55;100850.44;;;15.40;50.16
39405;BME280;25121;51.090;17.038;2023-05-25T05:54:17;100851.06;;;15.42;50.25
39405;BME280;25121;51.090;17.038;2023-05-25T05:55:40;100854.06;;;15.47;50.29
39405;BME280;25121;51.090;17.038;2023-05-25T05:57:02;100855.38;;;15.51;50.21
39405;BME280;25121;51.090;17.038;2023-05-25T05:58:24;100854.97;;;15.55;50.00
39405;BME280;25121;51.090;17.038;2023-05-25T05:59:48;100858.16;;;15.58;49.89
39405;BME280;25121;51.090;17.038;2023-05-25T06:01:11;100860.31;;;15.63;49.98
39405;BME280;25121;51.090;17.038;2023-05-25T06:02:33;100860.75;;;15.66;49.84
39405;BME280;25121;51.090;17.038;2023-05-25T06:03:58;100851.91;;;15.73;49.72
39405;BME280;25121;51.090;17.038;2023-05-25T06:05:22;100855.50;;;15.80;49.80
39405;BME280;25121;51.090;17.038;2023-05-25T06:06:45;100855.78;;;15.85;49.77
39405;BME280;25121;51.090;17.038;2023-05-25T06:08:06;100854.19;;;15.90;49.55
39405;BME280;25121;51.090;17.038;2023-05-25T06:09:29;100862.19;;;15.99;49.55
39405;BME280;25121;51.090;17.038;2023-05-25T06:10:52;100857.69;;;16.06;49.40
39405;BME280;25121;51.090;17.038;2023-05-25T06:12:15;100855.06;;;16.12;49.46
39405;BME280;25121;51.090;17.038;2023-05-25T06:13:38;100852.97;;;16.14;49.43
39405;BME280;25121;51.090;17.038;2023-05-25T06:15:01;100859.31;;;16.22;49.26
39405;BME280;25121;51.090;17.038;2023-05-25T06:16:23;100857.50;;;16.29;49.21
39405;BME280;25121;51.090;17.038;2023-05-25T06:17:45;100862.78;;;16.37;49.20
39405;BME280;25121;51.090;17.038;2023-05-25T06:19:08;100857.88;;;16.47;49.09
39405;BME280;25121;51.090;17.038;2023-05-25T06:20:31;100861.28;;;16.56;48.91
39405;BME280;25121;51.090;17.038;2023-05-25T06:21:53;100861.13;;;16.64;48.79
39405;BME280;25121;51.090;17.038;2023-05-25T06:23:16;100864.97;;;16.70;48.73
39405;BME280;25121;51.090;17.038;2023-05-25T06:24:39;100864.84;;;16.78;48.59
39405;BME280;25121;51.090;17.038;2023-05-25T06:26:04;100857.59;;;16.85;48.66
39405;BME280;25121;51.090;17.038;2023-05-25T06:27:26;100860.34;;;16.92;48.45
39405;BME280;25121;51.090;17.038;2023-05-25T06:28:48;100862.06;;;16.99;48.50
39405;BME280;25121;51.090;17.038;2023-05-25T06:30:11;100861.06;;;17.07;48.37
39405;BME280;25121;51.090;17.038;2023-05-25T06:31:33;100864.88;;;17.13;48.26
39405;BME280;25121;51.090;17.038;2023-05-25T06:32:55;100862.19;;;17.19;48.38
39405;BME280;25121;51.090;17.038;2023-05-25T06:34:20;100864.94;;;17.26;48.31
39405;BME280;25121;51.090;17.038;2023-05-25T06:35:43;100867.88;;;17.31;48.32
39405;BME280;25121;51.090;17.038;2023-05-25T06:37:06;100861.66;;;17.37;48.19
39405;BME280;25121;51.090;17.038;2023-05-25T06:38:28;100859.19;;;17.42;48.25
39405;BME280;25121;51.090;17.038;2023-05-25T06:39:52;100870.28;;;17.48;48.11
39405;BME280;25121;51.090;17.038;2023-05-25T06:41:19;100869.69;;;17.52;48.10
39405;BME280;25121;51.090;17.038;2023-05-25T06:42:41;100868.03;;;17.58;48.00
39405;BME280;25121;51.090;17.038;2023-05-25T06:44:23;100872.66;;;17.71;47.73
39405;BME280;25121;51.090;17.038;2023-05-25T06:45:45;100867.72;;;17.81;47.60
39405;BME280;25121;51.090;17.038;2023-05-25T06:47:08;100865.44;;;17.91;47.53
39405;BME280;25121;51.090;17.038;2023-05-25T06:48:39;100862.56;;;17.99;47.56
39405;BME280;25121;51.090;17.038;2023-05-25T06:50:02;100870.31;;;18.09;47.36
39405;BME280;25121;51.090;17.038;2023-05-25T06:51:29;100859.88;;;18.19;47.23
39405;BME280;25121;51.090;17.038;2023-05-25T06:52:54;100863.44;;;18.26;47.11
39405;BME280;25121;51.090;17.038;2023-05-25T06:54:19;100864.91;;;18.36;47.03
39405;BME280;25121;51.090;17.038;2023-05-25T06:57:33;100859.91;;;18.52;46.91
39405;BME280;25121;51.090;17.038;2023-05-25T06:58:57;100858.66;;;18.55;46.75
39405;BME280;25121;51.090;17.038;2023-05-25T07:00:19;100858.03;;;18.60;46.65
39405;BME280;25121;51.090;17.038;2023-05-25T07:01:44;100857.19;;;18.66;46.54
39405;BME280;25121;51.090;17.038;2023-05-25T07:03:07;100860.72;;;18.73;46.46
39405;BME280;25121;51.090;17.038;2023-05-25T07:04:29;100859.50;;;18.82;46.37
39405;BME280;25121;51.090;17.038;2023-05-25T07:05:52;100860.34;;;18.89;46.25
39405;BME280;25121;51.090;17.038;2023-05-25T07:07:15;100858.66;;;18.95;46.24
39405;BME280;25121;51.090;17.038;2023-05-25T07:08:37;100854.66;;;18.98;46.20
39405;BME280;25121;51.090;17.038;2023-05-25T07:10:02;100867.44;;;19.04;46.16
39405;BME280;25121;51.090;17.038;2023-05-25T07:11:24;100855.69;;;19.10;46.05
39405;BME280;25121;51.090;17.038;2023-05-25T07:16:20;100853.53;;;19.32;45.68
39405;BME280;25121;51.090;17.038;2023-05-25T07:17:42;100856.47;;;19.37;45.91
39405;BME280;25121;51.090;17.038;2023-05-25T07:19:04;100857.91;;;19.40;45.64
39405;BME280;25121;51.090;17.038;2023-05-25T07:20:26;100853.91;;;19.42;45.47
39405;BME280;25121;51.090;17.038;2023-05-25T07:21:52;100859.16;;;19.44;45.59
39405;BME280;25121;51.090;17.038;2023-05-25T07:23:15;100860.81;;;19.45;45.66
39405;BME280;25121;51.090;17.038;2023-05-25T07:24:37;100856.25;;;19.45;45.56
39405;BME280;25121;51.090;17.038;2023-05-25T07:25:58;100864.19;;;19.47;45.43
39405;BME280;25121;51.090;17.038;2023-05-25T07:27:24;100859.56;;;19.47;45.65
39405;BME280;25121;51.090;17.038;2023-05-25T07:28:46;100862.09;;;19.49;45.54
39405;BME280;25121;51.090;17.038;2023-05-25T07:30:17;100868.16;;;19.51;45.49
39405;BME280;25121;51.090;17.038;2023-05-25T07:33:53;100862.72;;;19.51;45.49
39405;BME280;25121;51.090;17.038;2023-05-25T07:35:15;100866.06;;;19.53;45.45
39405;BME280;25121;51.090;17.038;2023-05-25T07:36:37;100865.00;;;19.54;45.40
39405;BME280;25121;51.090;17.038;2023-05-25T07:38:00;100868.97;;;19.58;45.48
39405;BME280;25121;51.090;17.038;2023-05-25T07:39:23;100870.19;;;19.62;45.36
39405;BME280;25121;51.090;17.038;2023-05-25T07:40:46;100870.63;;;19.66;45.23
39405;BME280;25121;51.090;17.038;2023-05-25T07:42:08;100878.78;;;19.72;45.29
39405;BME280;25121;51.090;17.038;2023-05-25T07:43:30;100879.84;;;19.78;45.28
39405;BME280;25121;51.090;17.038;2023-05-25T07:44:52;100871.00;;;19.83;45.40
39405;BME280;25121;51.090;17.038;2023-05-25T07:46:22;100875.56;;;19.89;45.17